首页
METAR-TAF:

METAR-TAF

机场 :

Southwest Minnesota Regional Airport (Marshall/Ryan Field)

马歇尔, 明尼蘇達州, 美国

纬度: 44-27N, 经度: 095-49W, 海拔: 359米

当前天气观测

该预报发布于42分钟前的00:56 UTC
风速13节,风向西转西南
温度 13°C
湿度 88%
气压 1005 hPa
能見度: 16.1公里
少量云层高于2500英尺
多云层高于3400英尺
阴天层高于4400英尺

METAR: KMML 230056Z AUTO 24013KT 10SM FEW025 BKN034 OVC044 13/11 A2967 RMK AO2 PK WND 24027/0000 SLP052 T01280111

时间: 20:38 (01:38 UTC)


TAF: 丢失

超过4000个机场的气象观测和天气预报(METAR&TAF报告)。

可查询的气象台以黄色和红色小点在地图上表示。

将鼠标移到小点上方,可查看气象台名称。

然后点击查看天气观测和预报。

如需切换地图:点击带黑十字的绿色按钮放大地图;点击带横线的绿色按钮缩小地图;或者点击绿色箭头查看邻近地区的地图。


METAR-TAF: